createdAt,value
2023-05-04T00:01:01.449Z,86.42
2023-05-04T00:03:28.180Z,85.22
2023-05-04T00:05:54.985Z,85.34
2023-05-04T00:08:21.560Z,85.20
2023-05-04T00:10:48.173Z,85.63
2023-05-04T00:13:14.763Z,86.41
2023-05-04T00:15:41.569Z,87.24
2023-05-04T00:18:08.629Z,87.04
2023-05-04T00:20:35.213Z,85.94
2023-05-04T00:23:01.793Z,86.24
2023-05-04T00:25:28.446Z,85.58
2023-05-04T00:27:55.079Z,86.22
2023-05-04T00:30:21.654Z,86.41
2023-05-04T00:32:48.250Z,88.17
2023-05-04T00:35:14.895Z,88.60
2023-05-04T00:37:43.722Z,88.89
2023-05-04T00:40:10.758Z,88.53
2023-05-04T00:42:37.327Z,88.01
2023-05-04T00:45:04.078Z,87.71
2023-05-04T00:47:30.725Z,86.94
2023-05-04T00:49:57.527Z,86.91
2023-05-04T00:52:24.589Z,86.75
2023-05-04T00:54:52.992Z,86.48
2023-05-04T00:57:19.718Z,87.07
2023-05-04T00:59:47.835Z,87.98
2023-05-04T01:02:14.554Z,87.76
2023-05-04T01:04:41.224Z,87.47
2023-05-04T01:07:26.869Z,85.61
2023-05-04T01:10:09.105Z,86.23
2023-05-04T01:12:41.145Z,87.40
2023-05-04T01:15:09.714Z,87.82
2023-05-04T01:17:36.551Z,87.47
2023-05-04T01:20:04.317Z,88.84
2023-05-04T01:22:31.281Z,88.61
2023-05-04T01:24:57.962Z,87.40
2023-05-04T01:27:39.531Z,88.28
2023-05-04T01:30:15.261Z,89.05
2023-05-04T01:32:43.037Z,88.49
2023-05-04T01:35:11.882Z,88.32
2023-05-04T01:37:38.563Z,88.92
2023-05-04T01:40:06.089Z,88.80
2023-05-04T01:42:32.865Z,88.70
2023-05-04T01:44:59.457Z,88.91
2023-05-04T01:47:26.102Z,87.12
2023-05-04T01:49:52.907Z,86.89
2023-05-04T01:52:19.511Z,87.46
2023-05-04T01:54:46.080Z,87.95
2023-05-04T01:57:12.684Z,88.90
2023-05-04T01:59:39.230Z,88.49
2023-05-04T02:02:05.814Z,88.77
2023-05-04T02:04:32.494Z,88.00
2023-05-04T02:06:59.088Z,86.47
2023-05-04T02:09:26.212Z,86.65
2023-05-04T02:11:52.875Z,86.30
2023-05-04T02:14:19.433Z,87.19
2023-05-04T02:16:46.034Z,87.46
2023-05-04T02:19:12.684Z,87.86
2023-05-04T02:21:42.129Z,88.00
2023-05-04T02:24:08.725Z,87.96
2023-05-04T02:26:36.329Z,88.80
2023-05-04T02:29:03.829Z,87.90
2023-05-04T02:31:30.515Z,87.16
2023-05-04T02:33:57.162Z,88.69
2023-05-04T02:36:23.741Z,89.15
2023-05-04T02:38:51.448Z,88.38
2023-05-04T02:41:18.051Z,88.11
2023-05-04T02:43:44.615Z,87.80
2023-05-04T02:46:11.292Z,87.73
2023-05-04T02:48:37.991Z,88.22
2023-05-04T02:51:06.353Z,86.93
2023-05-04T02:53:32.943Z,87.88
2023-05-04T02:55:59.596Z,88.78
2023-05-04T02:58:26.368Z,89.24
2023-05-04T03:00:56.244Z,90.41
2023-05-04T03:03:22.860Z,89.96
2023-05-04T03:05:49.420Z,90.83
2023-05-04T03:08:16.156Z,90.68
2023-05-04T03:10:42.682Z,90.74
2023-05-04T03:13:09.325Z,90.22
2023-05-04T03:15:35.971Z,90.06
2023-05-04T03:18:02.677Z,89.23
2023-05-04T03:20:29.330Z,89.34
2023-05-04T03:22:55.962Z,89.12
2023-05-04T03:25:22.508Z,88.72
2023-05-04T03:27:49.081Z,89.70
2023-05-04T03:30:15.778Z,88.50
2023-05-04T03:32:42.445Z,88.11
2023-05-04T03:35:09.372Z,88.70
2023-05-04T03:37:36.078Z,87.17
2023-05-04T03:40:03.405Z,87.07
2023-05-04T03:42:30.188Z,87.44
2023-05-04T03:44:56.830Z,87.59
2023-05-04T03:47:23.454Z,87.54
2023-05-04T03:49:50.034Z,86.99
2023-05-04T03:52:16.594Z,86.94
2023-05-04T03:54:43.197Z,88.21
2023-05-04T03:57:09.816Z,88.09
2023-05-04T03:59:36.610Z,87.98
2023-05-04T04:02:03.282Z,87.20
2023-05-04T04:04:30.026Z,86.69
2023-05-04T04:06:56.688Z,85.02
2023-05-04T04:09:23.284Z,85.03
2023-05-04T04:11:49.844Z,84.25
2023-05-04T04:14:16.391Z,85.23
2023-05-04T04:16:43.180Z,85.18
2023-05-04T04:19:09.841Z,84.47
2023-05-04T04:21:36.491Z,84.44
2023-05-04T04:24:03.250Z,84.23
2023-05-04T04:26:29.851Z,86.03
2023-05-04T04:28:56.440Z,87.04
2023-05-04T04:31:23.042Z,88.41
2023-05-04T04:33:51.340Z,88.15
2023-05-04T04:36:18.295Z,87.51
2023-05-04T04:38:44.976Z,86.73
2023-05-04T04:41:11.822Z,86.76
2023-05-04T04:43:38.434Z,85.04
2023-05-04T04:46:05.330Z,84.13
2023-05-04T04:48:31.953Z,83.07
2023-05-04T04:50:59.048Z,80.27
2023-05-04T04:53:25.887Z,80.05
2023-05-04T04:55:52.771Z,79.55
2023-05-04T04:58:19.435Z,79.74
2023-05-04T05:00:47.561Z,79.16
2023-05-04T05:03:14.276Z,78.82
2023-05-04T05:05:40.829Z,78.23
2023-05-04T05:08:07.624Z,77.75
2023-05-04T05:10:34.178Z,77.59
2023-05-04T05:13:01.535Z,75.42
2023-05-04T05:15:28.175Z,74.93
2023-05-04T05:17:54.834Z,80.35
2023-05-04T05:20:21.601Z,80.30
2023-05-04T05:22:48.242Z,79.30
2023-05-04T05:25:14.909Z,78.64
2023-05-04T05:27:41.463Z,76.51
2023-05-04T05:30:08.383Z,76.94
2023-05-04T05:32:35.126Z,76.03
2023-05-04T05:35:01.827Z,77.45
2023-05-04T05:37:28.538Z,75.83
2023-05-04T05:39:55.087Z,75.02
2023-05-04T05:42:21.678Z,74.17
2023-05-04T05:44:48.336Z,75.05
2023-05-04T05:47:16.121Z,73.96
2023-05-04T05:49:44.781Z,72.99
2023-05-04T05:52:14.047Z,74.53
2023-05-04T05:54:41.346Z,78.85
2023-05-04T05:57:07.964Z,80.41
2023-05-04T05:59:34.617Z,81.63
2023-05-04T06:02:01.264Z,77.86
2023-05-04T06:04:27.939Z,76.91
2023-05-04T06:06:54.590Z,77.08
2023-05-04T06:09:21.180Z,75.73
2023-05-04T06:11:47.768Z,74.33
2023-05-04T06:14:14.329Z,74.68
2023-05-04T06:16:41.123Z,74.07
2023-05-04T06:19:08.105Z,73.35
2023-05-04T06:21:34.691Z,72.62
2023-05-04T06:24:01.322Z,73.60
2023-05-04T06:26:28.326Z,75.73
2023-05-04T06:28:55.113Z,74.52
2023-05-04T06:31:21.779Z,75.76
2023-05-04T06:33:48.587Z,73.99
2023-05-04T06:36:15.193Z,73.00
2023-05-04T06:38:41.804Z,72.91
2023-05-04T06:41:08.463Z,71.47
2023-05-04T06:43:35.110Z,71.57
2023-05-04T06:46:03.192Z,72.60
2023-05-04T06:48:30.566Z,72.71
2023-05-04T06:50:57.354Z,74.03
2023-05-04T06:53:25.086Z,73.70
2023-05-04T06:55:51.680Z,72.90
2023-05-04T06:58:22.070Z,73.48
2023-05-04T07:00:48.844Z,73.60
2023-05-04T07:03:15.528Z,73.32
2023-05-04T07:05:42.257Z,73.53
2023-05-04T07:08:09.842Z,73.91
2023-05-04T07:10:36.435Z,74.74
2023-05-04T07:13:03.619Z,74.39
2023-05-04T07:15:30.310Z,74.28
2023-05-04T07:17:57.066Z,74.09
2023-05-04T07:20:26.024Z,74.08
2023-05-04T07:22:56.533Z,75.25
2023-05-04T07:25:27.166Z,76.32
2023-05-04T07:27:54.421Z,75.97
2023-05-04T07:30:21.778Z,75.85
2023-05-04T07:32:48.707Z,76.57
2023-05-04T07:35:15.491Z,77.37
2023-05-04T07:37:42.156Z,77.22
2023-05-04T07:40:09.638Z,77.54
2023-05-04T07:42:36.450Z,77.55
2023-05-04T07:45:03.630Z,77.69
2023-05-04T07:47:30.353Z,77.30
2023-05-04T07:49:57.053Z,78.18
2023-05-04T07:52:23.702Z,79.14
2023-05-04T07:54:54.153Z,78.83
2023-05-04T07:57:21.855Z,78.67
2023-05-04T07:59:48.821Z,78.55
2023-05-04T08:02:15.914Z,77.86
2023-05-04T08:04:42.587Z,77.36
2023-05-04T08:07:09.213Z,76.34
2023-05-04T08:09:35.925Z,75.74
2023-05-04T08:12:04.390Z,78.45
2023-05-04T08:14:31.073Z,81.17
2023-05-04T08:16:57.698Z,83.77
2023-05-04T08:19:24.589Z,86.73
2023-05-04T08:21:51.289Z,85.38
2023-05-04T08:24:18.585Z,82.06
2023-05-04T08:26:55.685Z,81.18
2023-05-04T08:29:31.946Z,80.36
2023-05-04T08:31:59.134Z,79.17
2023-05-04T08:34:27.152Z,79.51
2023-05-04T08:36:53.783Z,79.40
2023-05-04T08:39:20.422Z,80.51
2023-05-04T08:41:47.047Z,78.52
2023-05-04T08:44:13.799Z,79.39
2023-05-04T08:46:41.102Z,78.86
2023-05-04T08:49:07.948Z,78.12
2023-05-04T08:51:37.053Z,76.95
2023-05-04T08:54:09.331Z,77.46
2023-05-04T08:56:36.673Z,76.37
2023-05-04T08:59:03.978Z,74.60
2023-05-04T09:01:32.723Z,78.36
2023-05-04T09:04:02.721Z,78.57
2023-05-04T09:06:29.802Z,75.43
2023-05-04T09:08:56.486Z,75.69
2023-05-04T09:11:23.383Z,75.67
2023-05-04T09:13:50.029Z,79.45
2023-05-04T09:16:17.161Z,77.66
2023-05-04T09:18:44.779Z,74.38
2023-05-04T09:21:12.119Z,71.65
2023-05-04T09:23:49.280Z,71.19
2023-05-04T09:26:26.481Z,68.95
2023-05-04T09:28:53.135Z,65.62
2023-05-04T09:31:20.058Z,63.82
2023-05-04T09:33:46.715Z,62.27
2023-05-04T09:36:15.705Z,64.99
2023-05-04T09:38:42.525Z,64.34
2023-05-04T09:41:09.617Z,62.22
2023-05-04T09:43:41.766Z,60.85
2023-05-04T09:46:19.438Z,61.41
2023-05-04T09:48:53.626Z,59.76
2023-05-04T09:51:22.553Z,59.49
2023-05-04T09:53:50.478Z,58.26
2023-05-04T09:56:32.323Z,58.62
2023-05-04T09:58:59.822Z,57.84
2023-05-04T10:01:29.878Z,58.59
2023-05-04T10:03:56.940Z,59.10
2023-05-04T10:06:24.700Z,59.51
2023-05-04T10:08:52.153Z,59.20
2023-05-04T10:11:20.267Z,59.56
2023-05-04T10:13:49.717Z,60.33
2023-05-04T10:16:41.665Z,60.41
2023-05-04T10:19:24.734Z,61.66
2023-05-04T10:22:13.338Z,60.67
2023-05-04T10:24:57.299Z,59.98
2023-05-04T10:27:46.650Z,59.92
2023-05-04T10:30:16.690Z,59.13
2023-05-04T10:32:43.531Z,56.65
2023-05-04T10:35:10.838Z,56.41
2023-05-04T10:37:37.949Z,55.81
2023-05-04T10:40:07.783Z,56.47
2023-05-04T10:42:44.602Z,56.59
2023-05-04T10:45:13.086Z,55.95
2023-05-04T10:47:40.785Z,54.99
2023-05-04T10:50:14.542Z,54.79
2023-05-04T10:52:49.654Z,55.04
2023-05-04T10:55:17.286Z,53.42
2023-05-04T10:57:51.903Z,54.38
2023-05-04T11:00:19.217Z,53.80
2023-05-04T11:02:49.714Z,52.95
2023-05-04T11:05:20.922Z,52.44
2023-05-04T11:07:50.760Z,52.27
2023-05-04T11:10:22.379Z,51.21
2023-05-04T11:12:49.119Z,50.27
2023-05-04T11:15:15.879Z,49.94
2023-05-04T11:17:54.792Z,51.50
2023-05-04T11:20:26.526Z,52.67
2023-05-04T11:22:54.535Z,52.25
2023-05-04T11:25:31.238Z,51.59
2023-05-04T11:27:58.889Z,49.89
2023-05-04T11:30:35.933Z,49.21
2023-05-04T11:33:12.471Z,48.96
2023-05-04T11:35:40.131Z,48.55
2023-05-04T11:38:07.799Z,48.27
2023-05-04T11:40:36.287Z,48.74
2023-05-04T11:43:03.389Z,49.42
2023-05-04T11:45:35.314Z,49.64
2023-05-04T11:48:02.613Z,49.14
2023-05-04T11:50:29.910Z,48.77
2023-05-04T11:53:13.648Z,48.25
2023-05-04T11:55:40.490Z,50.41
2023-05-04T11:58:11.234Z,49.49
2023-05-04T12:00:38.938Z,48.71
2023-05-04T12:03:07.696Z,48.42
2023-05-04T12:05:35.884Z,48.56
2023-05-04T12:08:03.723Z,49.02
2023-05-04T12:10:34.897Z,49.18
2023-05-04T12:13:02.266Z,48.83
2023-05-04T12:15:34.603Z,49.63
2023-05-04T12:18:03.114Z,51.07
2023-05-04T12:20:30.678Z,50.31
2023-05-04T12:22:58.141Z,50.31
2023-05-04T12:25:25.230Z,50.87
2023-05-04T12:27:51.943Z,51.62
2023-05-04T12:30:18.868Z,51.21
2023-05-04T12:32:46.098Z,50.65
2023-05-04T12:35:13.000Z,50.28
2023-05-04T12:37:39.724Z,50.63
2023-05-04T12:40:21.011Z,49.72
2023-05-04T12:42:54.209Z,51.41
2023-05-04T12:45:22.769Z,52.45
2023-05-04T12:47:49.530Z,51.32
2023-05-04T12:50:16.403Z,49.62
2023-05-04T12:52:43.133Z,47.47
2023-05-04T12:55:10.023Z,45.09
2023-05-04T12:57:36.984Z,41.97
2023-05-04T13:00:07.343Z,39.62
2023-05-04T13:02:34.180Z,39.95
2023-05-04T13:05:01.222Z,41.26
2023-05-04T13:07:27.926Z,41.00
2023-05-04T13:09:54.717Z,41.17
2023-05-04T13:12:21.624Z,38.82
2023-05-04T13:14:48.382Z,39.75
2023-05-04T13:17:15.317Z,41.98
2023-05-04T13:19:41.996Z,42.73
2023-05-04T13:22:08.674Z,43.01
2023-05-04T13:24:35.302Z,43.86
2023-05-04T13:27:03.002Z,44.10
2023-05-04T13:29:29.631Z,49.71
2023-05-04T13:31:56.587Z,53.13
2023-05-04T13:34:23.957Z,52.66
2023-05-04T13:36:50.936Z,50.99
2023-05-04T13:39:22.680Z,49.86
2023-05-04T13:41:49.488Z,51.87
2023-05-04T13:44:16.361Z,50.37
2023-05-04T13:46:43.165Z,49.22
2023-05-04T13:49:09.997Z,49.10
2023-05-04T13:51:37.856Z,48.78
2023-05-04T13:54:05.601Z,48.01
2023-05-04T13:56:32.474Z,48.46
2023-05-04T13:58:59.508Z,46.97
2023-05-04T14:01:26.361Z,45.89
2023-05-04T14:03:54.224Z,46.17
2023-05-04T14:06:21.999Z,48.59
2023-05-04T14:08:48.652Z,49.14
2023-05-04T14:11:15.381Z,48.42
2023-05-04T14:13:42.031Z,48.95
2023-05-04T14:16:08.801Z,48.65
2023-05-04T14:18:35.666Z,49.48
2023-05-04T14:21:02.435Z,48.80
2023-05-04T14:23:29.230Z,50.08
2023-05-04T14:25:57.201Z,53.58
2023-05-04T14:28:24.196Z,55.29
2023-05-04T14:30:51.273Z,58.62
2023-05-04T14:33:18.173Z,59.62
2023-05-04T14:35:48.014Z,60.46
2023-05-04T14:38:15.497Z,63.04
2023-05-04T14:40:42.622Z,62.16
2023-05-04T14:43:09.234Z,61.81
2023-05-04T14:45:36.078Z,63.52
2023-05-04T14:48:02.868Z,64.96
2023-05-04T14:50:29.633Z,64.69
2023-05-04T14:52:56.305Z,65.08
2023-05-04T14:55:23.187Z,63.58
2023-05-04T14:57:49.898Z,63.57
2023-05-04T15:00:19.783Z,64.69
2023-05-04T15:02:46.742Z,65.92
2023-05-04T15:05:13.736Z,68.25
2023-05-04T15:07:40.712Z,68.27
2023-05-04T15:10:09.146Z,68.91
2023-05-04T15:12:37.912Z,70.15
2023-05-04T15:15:05.133Z,70.82
2023-05-04T15:17:32.014Z,71.23
2023-05-04T15:20:01.419Z,72.25
2023-05-04T15:22:29.340Z,73.60
2023-05-04T15:24:56.897Z,72.84
2023-05-04T15:27:23.760Z,72.08
2023-05-04T15:29:50.510Z,73.10
2023-05-04T15:32:17.335Z,72.16
2023-05-04T15:34:50.747Z,72.96
2023-05-04T15:37:21.003Z,72.28
2023-05-04T15:39:47.801Z,72.44
2023-05-04T15:42:17.196Z,71.45
2023-05-04T15:44:44.017Z,72.07
2023-05-04T15:47:12.658Z,71.65
2023-05-04T15:49:39.967Z,70.76
2023-05-04T15:52:07.799Z,70.94
2023-05-04T15:54:34.587Z,73.49
2023-05-04T15:57:05.818Z,72.99
2023-05-04T15:59:32.573Z,72.72
2023-05-04T16:01:59.353Z,71.84
2023-05-04T16:04:27.381Z,71.28
2023-05-04T16:06:54.195Z,71.33
2023-05-04T16:09:22.223Z,71.20
2023-05-04T16:11:49.079Z,72.46
2023-05-04T16:14:16.428Z,74.13
2023-05-04T16:16:43.356Z,76.06
2023-05-04T16:19:11.703Z,74.86
2023-05-04T16:21:38.860Z,74.27
2023-05-04T16:24:10.340Z,74.80
2023-05-04T16:26:39.901Z,74.17
2023-05-04T16:29:09.795Z,72.92
2023-05-04T16:31:36.684Z,72.08
2023-05-04T16:34:03.619Z,70.65
2023-05-04T16:36:30.567Z,72.26
2023-05-04T16:38:59.692Z,73.31
2023-05-04T16:41:28.792Z,73.64
2023-05-04T16:43:57.404Z,75.57
2023-05-04T16:46:24.281Z,75.64
2023-05-04T16:48:52.153Z,76.68
2023-05-04T16:51:20.573Z,74.57
2023-05-04T16:53:47.413Z,74.59
2023-05-04T16:56:19.433Z,73.24
2023-05-04T16:58:49.149Z,71.65
2023-05-04T17:01:16.036Z,70.97
2023-05-04T17:03:43.040Z,70.94
2023-05-04T17:06:15.922Z,71.46
2023-05-04T17:08:46.473Z,70.98
2023-05-04T17:11:14.405Z,69.43
2023-05-04T17:13:41.279Z,70.30
2023-05-04T17:16:13.723Z,70.70
2023-05-04T17:18:42.931Z,72.01
2023-05-04T17:21:09.791Z,73.05
2023-05-04T17:23:38.477Z,74.13
2023-05-04T17:26:05.271Z,74.85
2023-05-04T17:28:38.046Z,75.20
2023-05-04T17:31:04.915Z,74.85
2023-05-04T17:33:38.062Z,75.57
2023-05-04T17:36:06.276Z,76.95
2023-05-04T17:38:33.440Z,77.86
2023-05-04T17:41:00.369Z,78.85
2023-05-04T17:43:27.160Z,79.09
2023-05-04T17:45:55.766Z,79.58
2023-05-04T17:48:24.363Z,81.38
2023-05-04T17:51:03.035Z,82.34
2023-05-04T17:53:36.222Z,82.41
2023-05-04T17:56:04.118Z,82.44
2023-05-04T17:58:32.920Z,82.63
2023-05-04T18:01:05.517Z,79.57
2023-05-04T18:03:32.624Z,78.44
2023-05-04T18:05:59.608Z,77.33
2023-05-04T18:08:31.446Z,77.50
2023-05-04T18:11:00.898Z,77.26
2023-05-04T18:13:27.726Z,76.54
2023-05-04T18:15:58.585Z,76.46
2023-05-04T18:18:25.825Z,76.60
2023-05-04T18:20:52.705Z,77.11
2023-05-04T18:23:19.565Z,76.34
2023-05-04T18:25:55.180Z,77.09
2023-05-04T18:28:24.817Z,77.27
2023-05-04T18:30:51.762Z,78.92
2023-05-04T18:33:21.479Z,78.90
2023-05-04T18:35:51.005Z,78.73
2023-05-04T18:38:17.825Z,79.19
2023-05-04T18:40:44.710Z,79.28
2023-05-04T18:43:11.558Z,79.05
2023-05-04T18:45:41.137Z,78.85
2023-05-04T18:48:10.889Z,79.30
2023-05-04T18:50:43.521Z,79.30
2023-05-04T18:53:10.323Z,79.71
2023-05-04T18:55:39.436Z,79.67
2023-05-04T18:58:07.320Z,80.40
2023-05-04T19:00:36.242Z,80.66
2023-05-04T19:03:03.134Z,80.65
2023-05-04T19:05:31.002Z,80.86
2023-05-04T19:08:01.264Z,81.72
2023-05-04T19:10:31.319Z,82.17
2023-05-04T19:12:59.474Z,83.44
2023-05-04T19:15:31.465Z,84.75
2023-05-04T19:18:00.388Z,85.93
2023-05-04T19:20:29.652Z,86.86
2023-05-04T19:22:59.087Z,85.14
2023-05-04T19:28:08.076Z,83.54
2023-05-04T19:30:41.746Z,85.06
2023-05-04T19:33:08.797Z,83.64
2023-05-04T19:35:36.061Z,83.00
2023-05-04T19:38:03.160Z,83.07
2023-05-04T19:40:30.020Z,83.38
2023-05-04T19:43:00.129Z,84.85
2023-05-04T19:45:29.383Z,85.54
2023-05-04T19:47:59.376Z,86.27
2023-05-04T19:50:28.321Z,86.17
2023-05-04T19:52:59.468Z,86.88
2023-05-04T19:55:28.728Z,86.89
2023-05-04T19:57:58.897Z,86.82
2023-05-04T20:00:25.925Z,87.45
2023-05-04T20:02:57.041Z,88.12
2023-05-04T20:05:27.678Z,88.96
2023-05-04T20:07:54.552Z,89.68
2023-05-04T20:10:21.978Z,89.34
2023-05-04T20:12:51.392Z,89.91
2023-05-04T20:15:22.532Z,89.31
2023-05-04T20:17:50.473Z,89.70
2023-05-04T20:20:20.532Z,88.54
2023-05-04T20:22:54.608Z,87.37
2023-05-04T20:25:24.520Z,87.04
2023-05-04T20:27:55.013Z,86.39
2023-05-04T20:30:22.096Z,86.21
2023-05-04T20:32:49.508Z,86.74
2023-05-04T20:35:22.768Z,85.98
2023-05-04T20:37:53.765Z,85.07
2023-05-04T20:40:28.789Z,87.18
2023-05-04T20:42:58.751Z,88.17
2023-05-04T20:45:25.707Z,87.36
2023-05-04T20:47:52.577Z,87.75
2023-05-04T20:50:23.076Z,87.96
2023-05-04T20:52:50.149Z,88.38
2023-05-04T20:55:19.693Z,87.43
2023-05-04T20:57:50.619Z,86.96
2023-05-04T21:00:18.438Z,87.15
2023-05-04T21:02:47.946Z,87.33
2023-05-04T21:05:14.879Z,86.88
2023-05-04T21:07:41.722Z,87.42
2023-05-04T21:10:11.118Z,88.99
2023-05-04T21:12:38.048Z,88.10
2023-05-04T21:15:05.802Z,89.11
2023-05-04T21:17:34.788Z,87.21
2023-05-04T21:20:01.844Z,86.94
2023-05-04T21:22:31.228Z,87.53
2023-05-04T21:24:58.036Z,87.25
2023-05-04T21:27:27.521Z,87.60
2023-05-04T21:29:54.265Z,87.36
2023-05-04T21:32:22.331Z,86.96
2023-05-04T21:34:55.214Z,86.97
2023-05-04T21:37:24.549Z,87.54
2023-05-04T21:39:58.847Z,88.15
2023-05-04T21:42:25.978Z,88.45
2023-05-04T21:45:01.335Z,88.77
2023-05-04T21:47:28.326Z,88.10
2023-05-04T21:49:55.270Z,89.03
2023-05-04T21:52:22.251Z,87.80
2023-05-04T21:54:49.176Z,88.73
2023-05-04T21:57:20.952Z,90.68
2023-05-04T21:59:49.809Z,90.05
2023-05-04T22:02:16.737Z,88.88
2023-05-04T22:04:44.134Z,88.20
2023-05-04T22:07:11.167Z,88.41
2023-05-04T22:09:38.005Z,88.15
2023-05-04T22:12:05.822Z,87.37
2023-05-04T22:14:32.561Z,87.17
2023-05-04T22:16:59.913Z,86.55
2023-05-04T22:19:26.927Z,86.73
2023-05-04T22:21:53.704Z,86.64
2023-05-04T22:24:20.991Z,86.66
2023-05-04T22:26:47.793Z,86.47
2023-05-04T22:29:14.526Z,86.37
2023-05-04T22:31:41.281Z,85.70
2023-05-04T22:34:08.053Z,85.85
2023-05-04T22:36:34.903Z,85.55
2023-05-04T22:39:01.511Z,84.77
2023-05-04T22:41:28.235Z,92.03
2023-05-04T22:43:54.984Z,92.53
2023-05-04T22:46:21.855Z,92.81
2023-05-04T22:48:48.546Z,93.25
2023-05-04T22:51:15.863Z,93.21
2023-05-04T22:53:42.555Z,93.18
2023-05-04T22:56:09.304Z,92.09
2023-05-04T22:58:35.877Z,91.37
2023-05-04T23:01:03.073Z,91.32
2023-05-04T23:03:29.801Z,91.18
2023-05-04T23:05:59.922Z,90.92
2023-05-04T23:08:26.606Z,90.12
2023-05-04T23:10:53.269Z,89.07
2023-05-04T23:13:19.886Z,88.72
2023-05-04T23:15:46.905Z,88.64
2023-05-04T23:18:13.927Z,88.65
2023-05-04T23:20:40.646Z,88.16
2023-05-04T23:23:07.168Z,88.45
2023-05-04T23:25:33.801Z,88.00
2023-05-04T23:28:00.392Z,87.97
2023-05-04T23:30:26.980Z,87.28
2023-05-04T23:32:53.608Z,87.39
2023-05-04T23:35:20.484Z,87.54
2023-05-04T23:37:47.157Z,87.20
2023-05-04T23:40:13.810Z,87.33
2023-05-04T23:42:40.467Z,88.97
2023-05-04T23:45:07.595Z,90.12
2023-05-04T23:47:34.272Z,90.85
2023-05-04T23:50:01.178Z,90.43
2023-05-04T23:52:27.763Z,88.63
2023-05-04T23:54:54.628Z,89.72
2023-05-04T23:57:21.216Z,90.45
2023-05-04T23:59:47.792Z,90.93
